Time;durP1;ratioP1;P1;durP2;ratioP2;P2;SDS_P1;SDS_P2;PMS_P1;PMS_P2;Temp;Humidity;BMP_temperature;BMP_pressure;BME280_temperature;BME280_humidity;BME280_pressure;Samples;Min_cycle;Max_cycle;Signal;HPM_P1;HPM_P2
2023/06/11 00:00:47;;;;;;;6.75;6.05;;;;;;;19.79;60.24;93304.59;5011915;28;20418;-88
2023/06/11 00:03:13;;;;;;;8.00;6.43;;;;;;;19.79;60.07;93309.34;5010643;28;20471;-89
2023/06/11 00:05:38;;;;;;;6.95;6.22;;;;;;;19.78;59.96;93299.63;5046526;28;20640;-89
2023/06/11 00:08:04;;;;;;;9.48;6.88;;;;;;;19.78;60.04;93303.09;5037058;28;20053;-90
2023/06/11 00:10:29;;;;;;;7.43;6.70;;;;;;;19.77;59.89;93300.88;5012802;28;20045;-89
2023/06/11 00:12:55;;;;;;;9.70;6.50;;;;;;;19.75;60.15;93298.66;5046057;28;20037;-88
2023/06/11 00:15:20;;;;;;;9.80;6.40;;;;;;;19.78;59.82;93300.38;5045218;28;20040;-89
2023/06/11 00:17:47;;;;;;;7.20;6.10;;;;;;;19.79;59.75;93301.09;5044807;28;20029;-89
2023/06/11 00:20:13;;;;;;;7.28;6.10;;;;;;;19.78;59.74;93300.38;5042995;28;20049;-89
2023/06/11 00:22:39;;;;;;;7.70;7.00;;;;;;;19.79;59.68;93298.38;5044363;28;20051;-91
2023/06/11 00:25:08;;;;;;;8.90;6.53;;;;;;;19.77;59.57;93303.63;5005494;28;20049;-89
2023/06/11 00:27:35;;;;;;;7.55;6.63;;;;;;;19.76;59.62;93302.16;5059542;28;20120;-89
2023/06/11 00:30:03;;;;;;;8.07;6.57;;;;;;;19.76;59.51;93305.63;5045291;28;20044;-90
2023/06/11 00:32:29;;;;;;;6.88;6.18;;;;;;;19.73;59.45;93306.69;5045241;28;20057;-89
2023/06/11 00:34:54;;;;;;;7.70;6.03;;;;;;;19.73;59.50;93300.44;5045951;28;20407;-90
2023/06/11 00:37:20;;;;;;;8.70;7.07;;;;;;;19.76;59.44;93308.38;4996146;28;20152;-89
2023/06/11 00:39:45;;;;;;;7.13;6.22;;;;;;;19.74;59.26;93312.91;5024067;28;20045;-89
2023/06/11 00:42:12;;;;;;;8.63;6.88;;;;;;;19.75;59.37;93304.16;5045287;28;20323;-90
2023/06/11 00:44:39;;;;;;;6.80;6.10;;;;;;;19.73;59.41;93312.16;5028857;28;20048;-88
2023/06/11 00:47:05;;;;;;;8.10;6.93;;;;;;;19.72;59.23;93318.16;5045375;28;20033;-90
2023/06/11 00:49:31;;;;;;;7.03;6.38;;;;;;;19.72;59.21;93321.66;5011747;28;20037;-89
2023/06/11 00:51:56;;;;;;;9.20;7.05;;;;;;;19.72;59.35;93321.66;5042162;28;20071;-88
2023/06/11 00:54:21;;;;;;;7.03;6.22;;;;;;;19.75;59.19;93325.34;5020806;28;20111;-89
2023/06/11 00:56:47;;;;;;;10.88;6.30;;;;;;;19.73;59.33;93328.63;5005925;28;20041;-90
2023/06/11 00:59:13;;;;;;;7.20;6.53;;;;;;;19.73;59.26;93330.63;4999763;28;20107;-89
2023/06/11 01:01:45;;;;;;;7.78;6.78;;;;;;;19.74;59.20;93334.84;4992106;28;20057;-90
2023/06/11 01:04:17;;;;;;;7.32;6.63;;;;;;;19.71;59.21;93325.66;5024871;28;20509;-90
2023/06/11 01:06:46;;;;;;;7.32;6.60;;;;;;;19.72;59.12;93337.34;4993040;28;20040;-88
2023/06/11 01:09:12;;;;;;;7.28;6.53;;;;;;;19.72;58.90;93342.84;5007655;28;20057;-89
2023/06/11 01:11:38;;;;;;;8.23;6.57;;;;;;;19.73;58.99;93341.59;5021918;28;20538;-90
2023/06/11 01:14:12;;;;;;;9.68;7.15;;;;;;;19.73;58.92;93338.84;4998432;28;20045;-89
2023/06/11 01:16:47;;;;;;;6.90;6.20;;;;;;;19.73;59.05;93344.34;4991772;28;20128;-88
2023/06/11 01:19:37;;;;;;;8.52;7.35;;;;;;;19.74;58.84;93341.06;5019711;28;20125;-89
2023/06/11 01:22:29;;;;;;;10.82;7.35;;;;;;;19.74;59.05;93332.09;5007845;28;20424;-89
2023/06/11 01:25:22;;;;;;;7.55;6.85;;;;;;;19.73;58.83;93334.09;5024324;28;20060;-90
2023/06/11 01:27:57;;;;;;;8.57;7.65;;;;;;;19.74;58.79;93337.59;5006678;28;20048;-88
2023/06/11 01:30:23;;;;;;;7.57;6.88;;;;;;;19.72;58.70;93329.13;5012326;28;20250;-90
2023/06/11 01:32:53;;;;;;;8.82;6.97;;;;;;;19.71;58.84;93327.66;4992914;28;20042;-90
2023/06/11 01:35:18;;;;;;;7.70;6.90;;;;;;;19.71;58.80;93324.91;4991872;28;20042;-89
2023/06/11 01:37:45;;;;;;;8.23;7.25;;;;;;;19.72;58.86;93326.38;5026523;28;20118;-89
2023/06/11 01:40:12;;;;;;;7.93;7.07;;;;;;;19.70;58.83;93324.16;5023201;28;20099;-88
2023/06/11 01:42:38;;;;;;;8.23;7.35;;;;;;;19.71;58.75;93333.88;5008587;28;20049;-88
2023/06/11 01:45:04;;;;;;;8.77;6.68;;;;;;;19.71;58.61;93330.41;5007884;28;20056;-88
2023/06/11 01:47:29;;;;;;;8.40;6.38;;;;;;;19.71;58.47;93344.84;5008263;28;20051;-88
2023/06/11 01:49:55;;;;;;;7.35;6.57;;;;;;;19.71;58.56;93339.38;4991490;28;20060;-89
2023/06/11 01:52:20;;;;;;;7.88;7.07;;;;;;;19.70;58.71;93339.91;5001592;28;20384;-89
2023/06/11 01:54:46;;;;;;;6.78;6.18;;;;;;;19.69;58.57;93330.94;5002759;28;20770;-89
2023/06/11 01:57:11;;;;;;;7.93;6.57;;;;;;;19.69;58.45;93328.19;4988463;28;20451;-89
2023/06/11 01:59:37;;;;;;;7.20;6.50;;;;;;;19.68;58.43;93340.44;5007640;28;20053;-89
2023/06/11 02:02:02;;;;;;;7.82;7.03;;;;;;;19.70;58.64;93340.63;5004064;28;20121;-88
2023/06/11 02:04:28;;;;;;;7.32;6.65;;;;;;;19.69;58.70;93341.91;4991220;28;20044;-90
2023/06/11 02:06:53;;;;;;;8.00;7.20;;;;;;;19.70;58.42;93345.41;4991477;28;20375;-88
2023/06/11 02:09:19;;;;;;;7.40;6.70;;;;;;;19.70;58.21;93346.09;4985549;28;20041;-90
2023/06/11 02:11:44;;;;;;;7.13;6.30;;;;;;;19.68;58.40;93337.69;5007980;28;20053;-88
2023/06/11 02:14:10;;;;;;;7.75;6.57;;;;;;;19.70;58.59;93350.88;5024074;28;20455;-88
2023/06/11 02:16:35;;;;;;;7.18;6.47;;;;;;;19.67;58.13;93344.44;5007341;28;20037;-89
2023/06/11 02:19:01;;;;;;;7.10;6.50;;;;;;;19.70;58.30;93339.91;5025304;28;20037;-88
2023/06/11 02:21:26;;;;;;;7.85;6.60;;;;;;;19.68;58.21;93345.91;5026941;28;20056;-88
2023/06/11 02:23:51;;;;;;;7.78;6.75;;;;;;;19.69;58.33;93343.91;4992069;28;20029;-89
2023/06/11 02:26:17;;;;;;;7.38;6.68;;;;;;;19.69;58.29;93338.44;5004366;28;20049;-89
2023/06/11 02:28:42;;;;;;;7.10;6.45;;;;;;;19.68;58.07;93343.16;5011971;28;20042;-89
2023/06/11 02:31:08;;;;;;;7.15;6.43;;;;;;;19.67;58.10;93343.69;5010788;28;20060;-91
2023/06/11 02:33:33;;;;;;;6.78;6.13;;;;;;;19.67;58.10;93347.16;5027612;28;20049;-90
2023/06/11 02:35:58;;;;;;;9.02;6.95;;;;;;;19.69;58.11;93352.13;5011855;28;20037;-88
2023/06/11 02:38:24;;;;;;;6.45;5.75;;;;;;;19.67;58.03;93351.91;5010951;28;20056;-90
2023/06/11 02:40:49;;;;;;;7.53;6.72;;;;;;;19.66;58.08;93356.66;5010427;28;20415;-88
2023/06/11 02:43:15;;;;;;;7.68;6.40;;;;;;;19.66;58.09;93362.16;5026975;28;20499;-88
2023/06/11 02:45:40;;;;;;;7.18;6.47;;;;;;;19.66;58.12;93364.88;4993353;28;20046;-90
2023/06/11 02:48:05;;;;;;;8.77;6.53;;;;;;;19.64;58.17;93361.91;4991076;28;20045;-89
2023/06/11 02:50:31;;;;;;;6.35;5.75;;;;;;;19.66;57.99;93358.66;4991074;28;20065;-90
2023/06/11 02:52:56;;;;;;;7.05;6.43;;;;;;;19.66;58.17;93367.63;5001168;28;20049;-89
2023/06/11 02:55:22;;;;;;;8.07;6.05;;;;;;;19.64;57.94;93364.66;5026849;28;20045;-89
2023/06/11 02:57:47;;;;;;;6.60;5.75;;;;;;;19.64;57.57;93367.41;5011232;28;20046;-89
2023/06/11 03:00:13;;;;;;;8.52;6.70;;;;;;;19.65;57.83;93366.16;5026204;28;20103;-88
2023/06/11 03:02:38;;;;;;;8.50;6.43;;;;;;;19.66;57.88;93355.91;5001411;28;20045;-90
2023/06/11 03:05:04;;;;;;;8.80;7.47;;;;;;;19.65;58.18;93365.41;4981995;28;20136;-90
2023/06/11 03:07:29;;;;;;;7.68;6.95;;;;;;;19.65;57.77;93368.88;4995009;28;20051;-87
2023/06/11 03:09:55;;;;;;;7.72;6.28;;;;;;;19.66;57.87;93375.13;4994212;28;20099;-90
2023/06/11 03:12:20;;;;;;;8.75;7.10;;;;;;;19.64;57.71;93361.91;5006581;28;20471;-89
2023/06/11 03:14:46;;;;;;;7.75;6.80;;;;;;;19.66;58.02;93367.63;4993820;28;20045;-89
2023/06/11 03:17:11;;;;;;;6.68;6.07;;;;;;;19.66;57.72;93361.41;5026872;28;20048;-89
2023/06/11 03:19:37;;;;;;;7.68;6.88;;;;;;;19.64;57.83;93364.66;5026385;28;20088;-88
2023/06/11 03:22:02;;;;;;;7.60;6.40;;;;;;;19.66;57.77;93364.16;5026634;28;20930;-89
2023/06/11 03:24:28;;;;;;;7.70;6.75;;;;;;;19.66;57.40;93375.13;5026704;28;20099;-90
2023/06/11 03:26:53;;;;;;;6.95;6.18;;;;;;;19.64;57.44;93372.16;5009583;28;20075;-91
2023/06/11 03:29:18;;;;;;;7.20;6.50;;;;;;;19.64;57.58;93372.88;5009613;28;20042;-90
2023/06/11 03:31:44;;;;;;;8.35;6.25;;;;;;;19.64;57.62;93372.16;5009384;28;20048;-89
2023/06/11 03:34:10;;;;;;;6.95;6.25;;;;;;;19.64;57.60;93372.88;5009715;28;20048;-89
2023/06/11 03:36:36;;;;;;;7.55;6.85;;;;;;;19.66;57.28;93372.38;5023528;28;20068;-89
2023/06/11 03:39:02;;;;;;;6.68;6.05;;;;;;;19.64;57.66;93372.88;4975092;28;20120;-90
2023/06/11 03:41:27;;;;;;;7.80;7.05;;;;;;;19.64;57.41;93375.63;4998264;28;20103;-91
2023/06/11 03:43:52;;;;;;;7.18;6.50;;;;;;;19.66;57.47;93366.88;5026511;28;20049;-89
2023/06/11 03:46:21;;;;;;;6.90;6.20;;;;;;;19.64;57.32;93383.13;5009483;28;20038;-88
2023/06/11 03:48:46;;;;;;;8.50;6.97;;;;;;;19.64;57.43;93383.13;4994560;28;20037;-89
2023/06/11 03:51:11;;;;;;;7.85;7.05;;;;;;;19.65;57.29;93379.84;5006703;28;20083;-88
2023/06/11 03:53:37;;;;;;;7.03;6.30;;;;;;;19.65;57.02;93395.56;5006693;28;20049;-90
2023/06/11 03:56:02;;;;;;;7.28;6.57;;;;;;;19.65;57.36;93385.34;5009301;28;20041;-88
2023/06/11 03:58:28;;;;;;;8.00;6.68;;;;;;;19.64;57.30;93394.81;5009879;28;20575;-89
2023/06/11 04:00:54;;;;;;;8.27;6.45;;;;;;;19.63;57.26;93385.13;5009647;28;20049;-91
2023/06/11 04:03:19;;;;;;;6.97;6.10;;;;;;;19.66;57.22;93392.31;4992253;28;20503;-91
2023/06/11 04:05:45;;;;;;;9.73;7.22;;;;;;;19.65;57.40;93399.06;5026186;28;20378;-90
2023/06/11 04:08:10;;;;;;;7.80;7.00;;;;;;;19.66;57.35;93383.34;4988009;28;20034;-89
2023/06/11 04:10:36;;;;;;;7.13;6.43;;;;;;;19.69;57.22;93387.78;4986203;28;20549;-90
2023/06/11 04:13:01;;;;;;;7.80;6.97;;;;;;;19.71;57.07;93388.00;4989723;28;20045;-88
2023/06/11 04:15:26;;;;;;;8.07;7.22;;;;;;;19.70;57.07;93381.75;4989632;28;20439;-89
2023/06/11 04:17:52;;;;;;;7.72;6.93;;;;;;;19.73;56.91;93382.72;5006404;28;20073;-90
2023/06/11 04:20:17;;;;;;;7.97;7.15;;;;;;;19.75;57.15;93382.94;5018055;28;20037;-88
2023/06/11 04:22:43;;;;;;;7.65;6.85;;;;;;;19.76;56.87;93385.19;4993063;28;20403;-89
2023/06/11 04:25:08;;;;;;;8.52;6.78;;;;;;;19.73;57.03;93386.22;4992293;28;20511;-88
2023/06/11 04:27:36;;;;;;;7.80;6.97;;;;;;;19.79;56.90;93380.66;5006623;28;20057;-88
2023/06/11 04:30:03;;;;;;;7.45;6.75;;;;;;;19.80;56.84;93387.63;5002357;28;20069;-88
2023/06/11 04:32:34;;;;;;;8.75;7.60;;;;;;;19.83;56.77;93383.84;5008993;28;20095;-89
2023/06/11 04:35:01;;;;;;;8.07;7.28;;;;;;;19.86;56.68;93380.06;5015558;28;20530;-90
2023/06/11 04:37:29;;;;;;;8.05;7.25;;;;;;;19.87;56.72;93386.28;5046113;28;20044;-88
2023/06/11 04:39:56;;;;;;;8.13;7.32;;;;;;;19.85;56.75;93387.56;5024665;28;20038;-89
2023/06/11 04:42:24;;;;;;;9.27;7.38;;;;;;;19.89;56.58;93379.03;5019052;28;20048;-90
2023/06/11 04:44:50;;;;;;;8.10;6.88;;;;;;;19.90;56.85;93391.47;5061670;28;20552;-89
2023/06/11 04:47:16;;;;;;;7.60;6.90;;;;;;;19.92;56.74;93386.19;5011944;28;20036;-90
2023/06/11 04:49:44;;;;;;;7.85;7.05;;;;;;;19.92;56.55;93391.69;5012340;28;20470;-89
2023/06/11 04:52:09;;;;;;;11.20;7.13;;;;;;;19.96;56.59;93383.88;5042157;28;20187;-88
2023/06/11 04:54:35;;;;;;;7.28;6.50;;;;;;;19.94;56.58;93391.91;5045210;28;20105;-88
2023/06/11 04:57:00;;;;;;;8.95;7.22;;;;;;;19.97;56.58;93387.38;5032212;28;20516;-91
2023/06/11 04:59:26;;;;;;;7.43;6.72;;;;;;;19.94;56.25;93380.91;5034211;28;20384;-90
2023/06/11 05:01:53;;;;;;;7.18;6.47;;;;;;;19.93;56.59;93390.41;5035445;28;20037;-89
2023/06/11 05:04:19;;;;;;;8.13;6.90;;;;;;;19.97;56.55;93396.34;5019140;28;20045;-89
2023/06/11 05:06:46;;;;;;;7.82;7.03;;;;;;;19.97;56.58;93390.84;5029878;28;20057;-90
2023/06/11 05:09:12;;;;;;;7.88;7.18;;;;;;;19.97;56.62;93396.34;5019085;28;20553;-89
2023/06/11 05:11:41;;;;;;;6.78;6.18;;;;;;;19.99;56.38;93384.84;5045087;28;20044;-89
2023/06/11 05:14:06;;;;;;;7.53;6.75;;;;;;;19.97;56.39;93395.59;5044430;28;20045;-89
2023/06/11 05:16:32;;;;;;;7.35;6.55;;;;;;;20.00;56.64;93392.56;4991985;28;20040;-88
2023/06/11 05:18:57;;;;;;;6.90;6.20;;;;;;;20.00;56.51;93397.31;4992696;28;20037;-89
2023/06/11 05:21:23;;;;;;;8.07;7.28;;;;;;;20.02;56.56;93403.75;4991101;28;20416;-90
2023/06/11 05:23:48;;;;;;;8.50;6.68;;;;;;;20.01;56.79;93401.53;5009523;28;20037;-90
2023/06/11 05:26:15;;;;;;;6.28;5.68;;;;;;;20.02;56.67;93406.50;4992261;28;20590;-90
2023/06/11 05:28:40;;;;;;;8.68;6.50;;;;;;;20.00;56.73;93400.78;5008818;28;20042;-91
2023/06/11 05:31:09;;;;;;;6.72;6.03;;;;;;;20.00;56.99;93398.06;5013888;28;20053;-91
2023/06/11 05:33:34;;;;;;;9.73;6.95;;;;;;;20.01;56.89;93396.06;4981152;28;20077;-90
2023/06/11 05:36:00;;;;;;;7.30;6.60;;;;;;;20.00;56.67;93403.53;5010275;28;20092;-89
2023/06/11 05:38:25;;;;;;;7.10;6.40;;;;;;;20.01;56.84;93401.53;5025664;28;20029;-91
2023/06/11 05:40:50;;;;;;;6.63;5.93;;;;;;;19.99;56.93;93409.53;5002428;28;20762;-89
2023/06/11 05:43:16;;;;;;;7.13;6.43;;;;;;;20.01;57.11;93401.53;5005588;28;20046;-91
2023/06/11 05:45:50;;;;;;;6.35;5.75;;;;;;;20.01;56.90;93412.50;5015646;28;20531;-90
2023/06/11 05:48:16;;;;;;;6.35;5.75;;;;;;;19.98;56.84;93410.81;5025368;28;20053;-89
2023/06/11 05:50:42;;;;;;;6.57;5.63;;;;;;;19.96;56.98;93405.84;4992369;28;20514;-91
2023/06/11 05:53:09;;;;;;;6.60;5.93;;;;;;;19.98;56.91;93413.56;5008368;28;20038;-89
2023/06/11 05:55:35;;;;;;;6.65;6.03;;;;;;;19.95;57.02;93412.59;5012064;28;20072;-88
2023/06/11 05:58:01;;;;;;;7.03;6.05;;;;;;;19.97;56.36;93414.81;4996919;28;20092;-90
2023/06/11 06:00:28;;;;;;;7.05;5.70;;;;;;;19.96;56.87;93418.81;4995140;28;20125;-91
2023/06/11 06:02:53;;;;;;;6.95;6.22;;;;;;;19.93;57.11;93415.09;5009698;28;20041;-89
2023/06/11 06:05:19;;;;;;;6.88;6.18;;;;;;;19.95;57.06;93420.81;4994800;28;20040;-91
2023/06/11 06:07:44;;;;;;;7.97;5.85;;;;;;;19.93;56.98;93426.09;5011038;28;20049;-89
2023/06/11 06:10:10;;;;;;;6.53;5.93;;;;;;;19.93;56.89;93428.09;4981007;28;20499;-90
2023/06/11 06:12:35;;;;;;;6.43;5.75;;;;;;;19.95;56.93;93440.03;5012409;28;20037;-89
2023/06/11 06:15:00;;;;;;;7.60;6.40;;;;;;;19.94;57.10;93443.28;4995651;28;20049;-90
2023/06/11 06:17:27;;;;;;;6.68;5.93;;;;;;;19.93;56.92;93433.56;5025651;28;20056;-89
2023/06/11 06:19:52;;;;;;;7.07;6.38;;;;;;;19.93;57.03;93444.53;4993891;28;20099;-89
2023/06/11 06:22:18;;;;;;;7.30;6.07;;;;;;;19.92;56.90;93449.28;4993934;28;20454;-89
2023/06/11 06:24:44;;;;;;;7.72;6.53;;;;;;;19.92;56.84;93443.09;4994262;28;20742;-89
2023/06/11 06:27:10;;;;;;;6.85;6.25;;;;;;;19.92;56.72;93451.31;4976938;28;20133;-89
2023/06/11 06:29:38;;;;;;;6.43;5.82;;;;;;;19.92;56.88;93459.56;4994102;28;20384;-88
2023/06/11 06:32:04;;;;;;;7.35;6.63;;;;;;;19.91;56.86;93452.56;4994101;28;20041;-90
2023/06/11 06:34:30;;;;;;;7.32;6.60;;;;;;;19.89;56.65;93455.84;4993601;28;20049;-90
2023/06/11 06:36:55;;;;;;;7.25;6.47;;;;;;;19.90;56.64;93457.31;4977242;28;20467;-90
2023/06/11 06:39:21;;;;;;;6.55;5.95;;;;;;;19.90;56.98;93457.31;5026724;28;20040;-88
2023/06/11 06:41:46;;;;;;;6.78;6.15;;;;;;;19.91;56.92;93460.81;4993189;28;20673;-89
2023/06/11 06:44:11;;;;;;;6.72;5.85;;;;;;;19.90;56.91;93459.31;5009440;28;20519;-88
2023/06/11 06:46:37;;;;;;;6.20;5.68;;;;;;;19.88;56.91;93459.09;5009633;28;20411;-89
2023/06/11 06:49:02;;;;;;;6.63;6.03;;;;;;;19.89;56.66;93466.06;5030309;28;20316;-88
2023/06/11 06:51:29;;;;;;;6.97;6.28;;;;;;;19.89;56.79;93466.81;5035122;28;20048;-91
2023/06/11 06:53:55;;;;;;;6.97;6.20;;;;;;;19.88;56.71;93462.59;5035674;28;20060;-90
2023/06/11 06:56:21;;;;;;;6.55;5.95;;;;;;;19.89;56.75;93468.81;5035899;28;20037;-88
2023/06/11 06:58:47;;;;;;;7.20;5.68;;;;;;;19.90;56.44;93473.78;5007835;28;20046;-88
2023/06/11 07:01:13;;;;;;;6.60;6.00;;;;;;;19.88;56.82;93448.88;5010624;28;20526;-88
2023/06/11 07:03:38;;;;;;;6.88;6.20;;;;;;;19.88;56.64;93459.84;5026672;28;20056;-90
2023/06/11 07:06:03;;;;;;;6.75;6.05;;;;;;;19.89;56.60;93457.84;5045173;28;20381;-89
2023/06/11 07:08:30;;;;;;;6.18;5.57;;;;;;;19.88;56.66;93454.34;5043340;28;20037;-89
2023/06/11 07:10:55;;;;;;;8.48;5.80;;;;;;;19.88;56.64;93459.84;5035292;28;20041;-87
2023/06/11 07:13:21;;;;;;;7.88;5.97;;;;;;;19.90;56.67;93451.84;5032965;28;20044;-87
2023/06/11 07:15:47;;;;;;;6.63;5.93;;;;;;;19.91;56.57;93452.56;5000454;28;20494;-89
2023/06/11 07:18:13;;;;;;;6.80;6.20;;;;;;;19.88;56.66;93450.88;5042432;28;20034;-89
2023/06/11 07:20:38;;;;;;;6.25;5.63;;;;;;;19.88;56.78;93454.34;5052505;28;20051;-89
2023/06/11 07:23:03;;;;;;;6.07;5.47;;;;;;;19.89;56.59;93458.59;5046347;28;20056;-89
2023/06/11 07:25:30;;;;;;;10.02;6.03;;;;;;;19.89;56.53;93455.84;5030062;28;20510;-89
2023/06/11 07:27:56;;;;;;;6.68;5.97;;;;;;;19.90;56.54;93468.31;5025652;28;20487;-88
2023/06/11 07:30:21;;;;;;;5.82;5.22;;;;;;;19.90;56.24;93457.31;5002334;28;20040;-88
2023/06/11 07:32:47;;;;;;;6.28;5.68;;;;;;;19.91;56.29;93450.56;5035244;28;20053;-88
2023/06/11 07:35:12;;;;;;;6.10;5.60;;;;;;;19.90;56.25;93453.84;5027934;28;20064;-88
2023/06/11 07:37:38;;;;;;;6.40;5.70;;;;;;;19.90;56.74;93448.34;5010098;28;20046;-89
2023/06/11 07:40:05;;;;;;;6.72;6.13;;;;;;;19.91;56.27;93449.84;5039306;28;20041;-89
2023/06/11 07:42:30;;;;;;;5.80;5.30;;;;;;;19.93;56.31;93453.53;5007188;28;20034;-90
2023/06/11 07:44:56;;;;;;;8.00;6.43;;;;;;;19.92;56.29;93454.06;5023048;28;20518;-88
2023/06/11 07:47:21;;;;;;;6.85;6.10;;;;;;;19.92;56.14;93445.84;5023343;28;20033;-87
2023/06/11 07:49:46;;;;;;;6.70;6.00;;;;;;;19.93;56.24;93450.78;5026492;28;20490;-89
2023/06/11 07:52:12;;;;;;;6.00;5.40;;;;;;;19.94;56.09;93457.00;5033708;28;20034;-87
2023/06/11 07:54:38;;;;;;;5.95;5.35;;;;;;;19.92;55.96;93445.84;5025927;28;20099;-89
2023/06/11 07:57:04;;;;;;;5.82;5.10;;;;;;;19.95;56.05;93456.47;5024053;28;20059;-87
2023/06/11 07:59:30;;;;;;;6.13;5.53;;;;;;;19.94;55.92;93455.00;5045952;28;20041;-87
2023/06/11 08:01:55;;;;;;;7.03;5.40;;;;;;;19.96;56.02;93455.22;5022642;28;20384;-89
2023/06/11 08:04:20;;;;;;;6.53;5.90;;;;;;;19.97;56.19;93456.72;5016589;28;20048;-89
2023/06/11 08:06:46;;;;;;;6.05;5.50;;;;;;;19.99;56.08;93456.19;5022119;28;20065;-89
2023/06/11 08:09:11;;;;;;;7.10;5.43;;;;;;;19.98;56.01;93452.72;5003730;28;20038;-89
2023/06/11 08:11:37;;;;;;;6.38;5.78;;;;;;;19.99;56.21;93456.94;5037769;28;20041;-89
2023/06/11 08:14:02;;;;;;;6.65;6.00;;;;;;;19.98;56.12;93454.72;5029641;28;20041;-88
2023/06/11 08:16:28;;;;;;;6.30;5.70;;;;;;;19.99;56.27;93461.69;5045183;28;20056;-89
2023/06/11 08:18:54;;;;;;;7.82;5.90;;;;;;;19.99;56.04;93451.44;5025361;28;20052;-87
2023/06/11 08:21:20;;;;;;;5.63;5.13;;;;;;;20.03;55.93;93451.91;5026939;28;20029;-88
2023/06/11 08:23:45;;;;;;;6.05;5.45;;;;;;;20.02;55.99;93450.41;5029983;28;20040;-88
2023/06/11 08:26:12;;;;;;;5.45;4.95;;;;;;;20.03;55.84;93443.66;5028674;28;20529;-87
2023/06/11 08:28:37;;;;;;;6.30;5.70;;;;;;;20.03;55.95;93443.66;5045443;28;20033;-90
2023/06/11 08:31:03;;;;;;;6.07;5.47;;;;;;;20.04;55.75;93453.38;5044829;28;20044;-89
2023/06/11 08:33:28;;;;;;;6.13;5.53;;;;;;;20.04;55.77;93450.63;5029055;28;20098;-89
2023/06/11 08:35:53;;;;;;;6.95;6.25;;;;;;;20.05;55.76;93446.63;5045288;28;20068;-88
2023/06/11 08:38:19;;;;;;;6.05;5.45;;;;;;;20.04;55.92;93453.38;5044489;28;20521;-88
2023/06/11 08:40:44;;;;;;;6.28;5.50;;;;;;;20.06;55.57;93459.09;5045129;28;20071;-88
2023/06/11 08:43:10;;;;;;;6.35;5.57;;;;;;;20.06;55.61;93455.59;5010468;28;20050;-89
2023/06/11 08:45:36;;;;;;;5.20;4.72;;;;;;;20.06;55.51;93456.34;5009560;28;20041;-88
2023/06/11 08:48:02;;;;;;;6.18;5.57;;;;;;;20.05;55.63;93460.34;5022029;28;20475;-89
2023/06/11 08:50:28;;;;;;;6.35;5.75;;;;;;;20.07;55.69;93462.56;5020110;28;20060;-88
2023/06/11 08:52:53;;;;;;;5.88;5.28;;;;;;;20.08;55.53;93469.56;5044915;28;20611;-87
2023/06/11 08:55:19;;;;;;;6.75;5.85;;;;;;;20.09;55.54;93465.53;5009463;28;20025;-87
2023/06/11 08:57:45;;;;;;;6.00;5.40;;;;;;;20.07;55.32;93459.84;5038467;28;20045;-87
2023/06/11 09:00:12;;;;;;;5.50;5.00;;;;;;;20.05;55.52;93465.84;5028216;28;20081;-89
2023/06/11 09:02:38;;;;;;;5.55;5.05;;;;;;;20.08;55.63;93464.81;5040713;28;20049;-89
2023/06/11 09:05:06;;;;;;;5.20;4.70;;;;;;;20.08;55.61;93461.31;5057099;28;20037;-87
2023/06/11 09:07:32;;;;;;;6.00;5.40;;;;;;;20.07;55.68;93462.56;5021414;28;20108;-87
2023/06/11 09:10:08;;;;;;;6.13;5.55;;;;;;;20.08;55.51;93458.56;4988907;28;20034;-87
2023/06/11 09:12:33;;;;;;;6.82;5.63;;;;;;;20.09;55.53;93469.03;5004237;28;20044;-89
2023/06/11 09:14:59;;;;;;;5.70;5.20;;;;;;;20.11;55.64;93465.75;5045135;28;20028;-87
2023/06/11 09:17:26;;;;;;;6.32;5.53;;;;;;;20.09;55.35;93465.53;5043667;28;20102;-87
2023/06/11 09:19:53;;;;;;;5.45;4.95;;;;;;;20.10;55.65;93469.78;5013288;28;20041;-91
2023/06/11 09:22:25;;;;;;;5.50;5.00;;;;;;;20.10;55.54;93478.75;5010380;28;20044;-90
2023/06/11 09:24:50;;;;;;;5.97;5.40;;;;;;;20.10;55.29;93465.03;5045121;28;20037;-89
2023/06/11 09:27:16;;;;;;;6.82;5.25;;;;;;;20.12;55.37;93470.00;5008021;28;20243;-90
2023/06/11 09:29:46;;;;;;;5.38;4.88;;;;;;;20.11;55.31;93472.00;5011403;28;20041;-88
2023/06/11 09:32:12;;;;;;;5.13;4.72;;;;;;;20.10;55.39;93475.25;5007314;28;20481;-88
2023/06/11 09:34:37;;;;;;;5.90;5.30;;;;;;;20.09;55.59;93471.78;5014384;28;20491;-90
2023/06/11 09:37:03;;;;;;;6.65;5.93;;;;;;;20.12;55.42;93467.25;5044802;28;20068;-87
2023/06/11 09:39:29;;;;;;;5.38;4.88;;;;;;;20.10;55.59;93472.50;5048968;28;20358;-90
2023/06/11 09:41:54;;;;;;;5.97;5.38;;;;;;;20.11;55.51;93474.00;5012195;28;20045;-89
2023/06/11 09:44:20;;;;;;;6.80;5.38;;;;;;;20.12;55.18;93468.00;5028798;28;20124;-88
2023/06/11 09:46:48;;;;;;;6.18;5.57;;;;;;;20.10;55.54;93483.50;5002900;28;20040;-89
2023/06/11 09:49:15;;;;;;;7.03;5.88;;;;;;;20.13;55.46;93463.25;5037674;28;20048;-88
2023/06/11 09:51:40;;;;;;;6.85;5.07;;;;;;;20.12;55.39;93478.22;5034588;28;20045;-89
2023/06/11 09:54:08;;;;;;;6.20;5.28;;;;;;;20.13;55.40;93472.22;5038347;28;20100;-90
2023/06/11 09:56:35;;;;;;;6.97;5.93;;;;;;;20.13;55.17;93479.72;5033375;28;20441;-90
2023/06/11 09:59:01;;;;;;;7.38;5.72;;;;;;;20.13;55.16;93474.97;5031959;28;20044;-90
2023/06/11 10:01:29;;;;;;;5.95;5.35;;;;;;;20.13;55.40;93485.94;5047788;28;20367;-89
2023/06/11 10:03:57;;;;;;;6.20;5.60;;;;;;;20.14;55.44;93481.16;5038103;28;20131;-90
2023/06/11 10:06:25;;;;;;;6.95;6.20;;;;;;;20.13;55.32;93483.19;5032093;28;20041;-88
2023/06/11 10:08:51;;;;;;;6.13;5.53;;;;;;;20.15;55.32;93482.66;5028296;28;20037;-90
2023/06/11 10:11:20;;;;;;;6.60;5.90;;;;;;;20.14;55.16;93490.16;5049382;28;20041;-90
2023/06/11 10:13:56;;;;;;;6.20;5.60;;;;;;;20.14;55.46;93481.16;5053900;28;20179;-89
2023/06/11 10:16:21;;;;;;;6.10;5.60;;;;;;;20.15;55.26;93479.91;5053918;28;20040;-88
2023/06/11 10:18:46;;;;;;;5.75;5.25;;;;;;;20.14;55.10;93484.66;5052621;28;20434;-87
2023/06/11 10:21:12;;;;;;;6.47;5.85;;;;;;;20.16;55.15;93489.63;5081529;28;20037;-88
2023/06/11 10:23:40;;;;;;;7.03;5.85;;;;;;;20.15;55.22;93482.66;5045019;28;20040;-89
2023/06/11 10:26:06;;;;;;;7.43;6.65;;;;;;;20.16;54.93;93479.38;5060709;28;20036;-89
2023/06/11 10:28:44;;;;;;;7.03;6.07;;;;;;;20.15;55.19;93482.66;5085594;28;20434;-89
2023/06/11 10:31:09;;;;;;;7.60;6.53;;;;;;;20.15;55.10;93483.41;5052792;28;20036;-88
2023/06/11 10:33:44;;;;;;;7.53;5.65;;;;;;;20.14;55.24;93494.91;5052356;28;20108;-88
2023/06/11 10:36:24;;;;;;;6.80;6.05;;;;;;;20.15;55.09;93496.38;5063474;28;20036;-89
2023/06/11 10:38:51;;;;;;;6.68;6.07;;;;;;;20.17;55.15;93488.38;5052809;28;20105;-90
2023/06/11 10:41:26;;;;;;;6.78;6.10;;;;;;;20.15;55.04;93477.16;5032466;28;20480;-89
2023/06/11 10:43:52;;;;;;;7.13;6.10;;;;;;;20.15;54.84;93491.63;5027305;28;20045;-89
2023/06/11 10:46:18;;;;;;;6.00;5.50;;;;;;;20.14;54.85;93479.16;4994802;28;20111;-88
2023/06/11 10:48:48;;;;;;;6.38;5.78;;;;;;;20.15;55.05;93477.91;5030391;28;20548;-90
2023/06/11 10:51:14;;;;;;;6.97;6.28;;;;;;;20.17;55.11;93478.13;5023391;28;20037;-90
2023/06/11 10:53:40;;;;;;;6.95;5.97;;;;;;;20.14;54.85;93476.41;5027527;28;20522;-89
2023/06/11 10:56:09;;;;;;;6.47;5.88;;;;;;;20.15;54.98;93472.41;5029905;28;20088;-88
2023/06/11 10:58:35;;;;;;;6.97;6.05;;;;;;;20.18;54.84;93470.63;5010524;28;20060;-87
2023/06/11 11:01:01;;;;;;;6.78;6.07;;;;;;;20.18;54.76;93470.63;5006938;28;20488;-89
2023/06/11 11:03:30;;;;;;;6.50;5.90;;;;;;;20.18;54.79;93465.16;5009787;28;20063;-87
2023/06/11 11:05:55;;;;;;;6.18;5.18;;;;;;;20.18;54.74;93473.38;5014961;28;20049;-88
2023/06/11 11:08:21;;;;;;;7.45;6.07;;;;;;;20.15;54.80;93466.94;5078027;28;20518;-88
2023/06/11 11:10:51;;;;;;;7.55;5.80;;;;;;;20.18;54.83;93459.66;5030525;28;20448;-88
2023/06/11 11:13:17;;;;;;;5.85;5.35;;;;;;;20.17;54.69;93469.91;5027062;28;20044;-88
2023/06/11 11:15:42;;;;;;;6.30;5.70;;;;;;;20.17;54.50;93458.19;5047310;28;20037;-89
2023/06/11 11:18:08;;;;;;;7.13;6.05;;;;;;;20.19;54.57;93452.91;5011298;28;20049;-88
2023/06/11 11:20:33;;;;;;;6.40;5.80;;;;;;;20.18;54.42;93459.66;5029458;28;20103;-88
2023/06/11 11:22:59;;;;;;;6.70;6.00;;;;;;;20.18;54.68;93465.88;5046777;28;20033;-89
2023/06/11 11:25:27;;;;;;;6.43;5.82;;;;;;;20.18;54.49;93452.16;5013584;28;20033;-88
2023/06/11 11:27:53;;;;;;;6.20;5.60;;;;;;;20.18;54.57;93448.69;5047186;28;20045;-87
2023/06/11 11:30:18;;;;;;;6.68;6.03;;;;;;;20.19;54.54;93448.16;5026272;28;20048;-87